Time;durP1;ratioP1;P1;durP2;ratioP2;P2;SDS_P1;SDS_P2;PMS_P1;PMS_P2;Temp;Humidity;BMP_temperature;BMP_pressure;BME280_temperature;BME280_humidity;BME280_pressure;Samples;Min_cycle;Max_cycle;Signal;HPM_P1;HPM_P2
2023/05/25 00:00:13;1189960.00;3.97;2072.08;43056.00;0.14;75.18;;;;;13.80;1.00;;;;;;2263833;61;2209;-86
2023/05/25 00:02:41;900479.00;3.00;1556.96;56499.00;0.19;98.42;;;;;14.00;1.00;;;;;;2263872;61;1108;-87
2023/05/25 00:05:09;909101.00;3.03;1572.11;89725.00;0.30;155.83;;;;;14.00;1.00;;;;;;2263782;61;1396;-86
2023/05/25 00:07:36;1130862.00;3.77;1965.70;76192.00;0.25;132.46;;;;;14.10;1.00;;;;;;2264420;61;1918;-87
2023/05/25 00:10:05;1321615.00;4.41;2311.72;150854.00;0.50;261.28;;;;;13.90;1.00;;;;;;2264445;61;1068;-86
2023/05/25 00:12:32;1171414.00;3.90;2038.62;62479.00;0.21;108.76;;;;;14.00;1.00;;;;;;2264528;61;1185;-86
2023/05/25 00:14:59;1053864.00;3.51;1828.11;64729.00;0.22;112.65;;;;;14.30;1.00;;;;;;2264479;61;1269;-86
2023/05/25 00:17:28;1124583.00;3.75;1954.44;63333.00;0.21;110.24;;;;;14.30;1.00;;;;;;2264462;61;1618;-85
2023/05/25 00:19:56;1058854.00;3.53;1836.99;80740.00;0.27;140.32;;;;;14.30;1.00;;;;;;2264591;61;1149;-86
2023/05/25 00:22:23;1301459.00;4.34;2274.78;151848.00;0.51;262.99;;;;;14.40;1.00;;;;;;2264557;61;1034;-86
2023/05/25 00:24:50;1084943.00;3.62;1883.52;134081.00;0.45;232.37;;;;;14.40;1.00;;;;;;2264510;61;1381;-87
2023/05/25 00:27:18;1190655.00;3.97;2073.33;118258.00;0.39;205.08;;;;;14.10;1.00;;;;;;2264541;61;1988;-87
2023/05/25 00:29:46;1154065.00;3.85;2007.39;74399.00;0.25;129.36;;;;;14.10;1.00;;;;;;2264542;61;1100;-86
2023/05/25 00:32:12;998861.00;3.33;1730.45;63029.00;0.21;109.71;;;;;14.20;1.00;;;;;;2264553;61;1061;-86
2023/05/25 00:34:39;1036980.00;3.46;1798.08;18327.00;0.06;32.37;;;;;14.00;1.00;;;;;;2264462;61;1363;-86
2023/05/25 00:37:06;889687.00;2.97;1538.01;21943.00;0.07;38.63;;;;;14.00;1.00;;;;;;2264488;61;1084;-86
2023/05/25 00:39:33;1024977.00;3.42;1776.76;83787.00;0.28;145.58;;;;;13.80;1.00;;;;;;2264471;61;1092;-86
2023/05/25 00:42:02;897496.00;2.99;1551.72;14902.00;0.05;26.44;;;;;13.90;1.00;;;;;;2264488;61;1145;-86
2023/05/25 00:44:31;1045054.00;3.48;1812.43;62836.00;0.21;109.38;;;;;13.60;1.00;;;;;;2264524;61;1340;-85
2023/05/25 00:47:00;1244046.00;4.15;2170.06;80635.00;0.27;140.13;;;;;13.30;1.00;;;;;;2264542;61;1920;-84
2023/05/25 00:49:35;120551272.00;401.84;70970064.00;72523.00;0.24;126.12;;;;;13.10;1.00;;;;;;2264480;61;1071;-85
2023/05/25 00:52:03;1291730.00;4.31;2256.98;96235.00;0.32;167.07;;;;;12.80;1.00;;;;;;2264417;61;1598;-84
2023/05/25 00:54:32;1361604.00;4.54;2385.30;113878.00;0.38;197.52;;;;;12.70;1.00;;;;;;2264414;61;1314;-86
2023/05/25 00:57:03;1017040.00;3.39;1762.68;72006.00;0.24;125.23;;;;;13.20;1.00;;;;;;2264405;61;1108;-85
2023/05/25 00:59:39;939045.00;3.13;1624.80;55808.00;0.19;97.23;;;;;13.30;1.00;;;;;;2264411;61;2182;-85
2023/05/25 01:02:09;466804.00;1.56;804.69;25727.00;0.09;45.19;;;;;13.30;1.00;;;;;;2264379;61;984;-86
2023/05/25 01:04:40;654111.00;2.18;1127.75;101498.00;0.34;176.16;;;;;13.30;1.00;;;;;;2264391;61;1344;-85
2023/05/25 01:07:10;466730.00;1.56;804.56;80198.00;0.27;139.38;;;;;13.50;1.00;;;;;;2264338;61;1922;-85
2023/05/25 01:09:41;795812.00;2.65;1373.82;45596.00;0.15;79.57;;;;;13.80;1.00;;;;;;2264370;61;1001;-86
2023/05/25 01:12:10;865304.00;2.88;1495.26;64253.00;0.21;111.83;;;;;14.30;1.00;;;;;;2264330;61;1162;-86
2023/05/25 01:14:40;1082297.00;3.61;1878.79;81009.00;0.27;140.78;;;;;14.50;1.00;;;;;;2264265;61;2010;-86
2023/05/25 01:17:07;921568.00;3.07;1594.03;99686.00;0.33;173.03;;;;;14.80;1.00;;;;;;2264255;61;2249;-86
2023/05/25 01:19:35;886079.00;2.95;1531.68;43041.00;0.14;75.15;;;;;15.10;1.00;;;;;;2264321;61;1141;-86
2023/05/25 01:22:08;795587.00;2.65;1373.43;78641.00;0.26;136.69;;;;;15.30;1.00;;;;;;2264291;61;1061;-86
2023/05/25 01:24:41;804878.00;2.68;1389.63;61350.00;0.20;106.81;;;;;15.40;1.00;;;;;;2264326;61;1453;-85
2023/05/25 01:27:16;908943.00;3.03;1571.83;108372.00;0.36;188.02;;;;;15.30;1.00;;;;;;2264272;61;1998;-86
2023/05/25 01:29:45;618360.00;2.06;1065.93;48759.00;0.16;85.04;;;;;15.40;1.00;;;;;;2264313;61;1140;-87
2023/05/25 01:32:14;649702.00;2.17;1120.12;31773.00;0.11;55.65;;;;;15.70;1.00;;;;;;2264311;61;934;-85
2023/05/25 01:34:43;749505.00;2.50;1293.20;31510.00;0.11;55.20;;;;;16.00;1.00;;;;;;2264162;61;1604;-87
2023/05/25 01:37:12;1089856.00;3.63;1892.29;187026.00;0.62;323.59;;;;;16.40;1.00;;;;;;2264292;61;1119;-88
2023/05/25 01:39:39;889700.00;2.97;1538.04;76438.00;0.25;132.88;;;;;16.40;1.00;;;;;;2264258;61;975;-86
2023/05/25 01:42:07;849240.00;2.83;1467.14;58225.00;0.19;101.41;;;;;16.10;1.00;;;;;;2264210;61;1177;-86
2023/05/25 01:44:33;780450.00;2.60;1347.05;43490.00;0.14;75.93;;;;;16.10;1.00;;;;;;2264244;61;1328;-86
2023/05/25 01:47:08;757943.00;2.53;1307.87;6076.00;0.02;11.15;;;;;16.00;1.00;;;;;;2264155;61;1993;-86
2023/05/25 01:49:43;834689.00;2.78;1441.69;44011.00;0.15;76.83;;;;;16.00;1.00;;;;;;2264189;61;1043;-86
2023/05/25 01:52:22;197244.00;0.66;341.18;12476.00;0.04;22.24;;;;;15.50;1.00;;;;;;2264184;61;1164;-86
2023/05/25 01:54:53;198537.00;0.66;343.41;17119.00;0.06;30.28;;;;;15.40;1.00;;;;;;2264147;61;1486;-86
2023/05/25 01:57:20;610260.00;2.03;1051.94;98713.00;0.33;171.35;;;;;15.10;1.00;;;;;;2264109;61;1676;-86
2023/05/25 01:59:49;665007.00;2.22;1146.61;111552.00;0.37;193.51;;;;;14.30;1.00;;;;;;2264110;61;1545;-85
2023/05/25 02:02:18;892062.00;2.97;1542.18;61530.00;0.21;107.12;;;;;13.50;1.00;;;;;;2264217;61;1119;-86
2023/05/25 02:04:46;974639.00;3.25;1687.61;26612.00;0.09;46.72;;;;;13.10;1.00;;;;;;2264134;61;1361;-85
2023/05/25 02:07:14;1120728.00;3.74;1947.53;93227.00;0.31;161.88;;;;;13.00;1.00;;;;;;2264156;61;1920;-85
2023/05/25 02:09:41;924304.00;3.08;1598.85;38527.00;0.13;67.34;;;;;12.80;1.00;;;;;;2264156;61;1044;-85
2023/05/25 02:12:08;959452.00;3.20;1660.79;8299.00;0.03;15.00;;;;;12.70;1.00;;;;;;2264149;61;1104;-86
2023/05/25 02:14:35;593741.00;1.98;1023.41;20973.00;0.07;36.96;;;;;12.80;1.00;;;;;;2264121;61;1318;-85
2023/05/25 02:17:02;885500.00;2.95;1530.67;26205.00;0.09;46.01;;;;;13.00;1.00;;;;;;2264147;61;982;-86
2023/05/25 02:19:30;1051197.00;3.50;1823.36;123484.00;0.41;214.09;;;;;13.20;1.00;;;;;;2264186;61;1144;-86
2023/05/25 02:21:57;808957.00;2.70;1396.75;105373.00;0.35;182.85;;;;;13.30;1.00;;;;;;2264135;61;1029;-85
2023/05/25 02:24:26;974470.00;3.25;1687.31;72412.00;0.24;125.93;;;;;13.30;1.00;;;;;;2264022;61;1367;-85
2023/05/25 02:26:53;1481066.00;4.94;2607.54;50270.00;0.17;87.65;;;;;13.20;1.00;;;;;;2264087;61;1931;-85
2023/05/25 02:29:20;1169221.00;3.90;2034.67;40217.00;0.13;70.26;;;;;13.20;1.00;;;;;;2263954;61;1068;-86
2023/05/25 02:31:47;911294.00;3.04;1575.96;75816.00;0.25;131.81;;;;;12.80;1.00;;;;;;2264098;61;1144;-85
2023/05/25 02:34:14;877850.00;2.93;1517.25;36446.00;0.12;63.74;;;;;13.10;1.00;;;;;;2264016;61;1319;-86
2023/05/25 02:36:42;1142078.00;3.81;1985.84;53901.00;0.18;93.93;;;;;13.00;1.00;;;;;;2264097;61;1167;-85
2023/05/25 02:39:09;918092.00;3.06;1587.92;3335.00;0.01;6.40;;;;;13.10;1.00;;;;;;2264046;61;1056;-86
2023/05/25 02:41:37;926405.00;3.09;1602.54;35767.00;0.12;62.56;;;;;12.90;1.00;;;;;;2264003;61;974;-86
2023/05/25 02:44:04;1179593.00;3.93;2053.37;16609.00;0.06;29.40;;;;;12.90;1.00;;;;;;2263951;61;1382;-86
2023/05/25 02:46:32;929139.00;3.10;1607.36;36399.00;0.12;63.66;;;;;12.90;1.00;;;;;;2264038;61;984;-87
2023/05/25 02:48:59;995499.00;3.32;1724.50;78354.00;0.26;136.19;;;;;12.80;1.00;;;;;;2264054;61;1922;-86
2023/05/25 02:51:26;783056.00;2.61;1351.59;38290.00;0.13;66.93;;;;;12.90;1.00;;;;;;2264064;61;1102;-87
2023/05/25 02:53:53;1072567.00;3.58;1861.43;91125.00;0.30;158.25;;;;;13.10;1.00;;;;;;2264101;61;1040;-86
2023/05/25 02:56:20;1098731.00;3.66;1908.15;111367.00;0.37;193.19;;;;;13.20;1.00;;;;;;2263934;61;1403;-86
2023/05/25 02:58:48;1199521.00;4.00;2089.35;0.00;0.00;0.62;;;;;13.10;1.00;;;;;;2263967;61;1253;-84
2023/05/25 03:01:17;1413689.00;4.71;2481.74;77224.00;0.26;134.24;;;;;12.90;1.00;;;;;;2264074;61;1152;-85
2023/05/25 03:03:44;903845.00;3.01;1562.87;26765.00;0.09;46.98;;;;;12.50;1.00;;;;;;2264258;61;1088;-84
2023/05/25 03:06:12;934617.00;3.12;1617.00;53603.00;0.18;93.42;;;;;12.20;1.00;;;;;;2264277;61;1300;-84
2023/05/25 03:08:39;1040917.00;3.47;1805.08;47968.00;0.16;83.67;;;;;12.10;1.00;;;;;;2264333;61;1992;-85
2023/05/25 03:11:06;1413998.00;4.71;2482.31;206054.00;0.69;356.34;;;;;11.80;1.00;;;;;;2264286;61;1057;-85
2023/05/25 03:13:33;1100099.00;3.67;1910.60;82163.00;0.27;142.77;;;;;11.70;1.00;;;;;;2264194;61;1010;-85
2023/05/25 03:16:01;1102390.00;3.67;1914.70;19158.00;0.06;33.81;;;;;11.80;1.00;;;;;;2264260;61;1336;-85
2023/05/25 03:18:28;1409068.00;4.70;2473.15;120167.00;0.40;208.37;;;;;12.20;1.00;;;;;;2264332;61;1143;-85
2023/05/25 03:20:55;850975.00;2.84;1470.17;47353.00;0.16;82.61;;;;;12.50;1.00;;;;;;2264345;61;1058;-84
2023/05/25 03:23:22;1177918.00;3.93;2050.35;79522.00;0.27;138.21;;;;;12.70;1.00;;;;;;2264240;61;1135;-85
2023/05/25 03:25:49;946682.00;3.16;1638.26;95039.00;0.32;165.01;;;;;12.90;1.00;;;;;;2264264;61;1325;-85
2023/05/25 03:28:16;1014502.00;3.38;1758.17;49882.00;0.17;86.98;;;;;12.90;1.00;;;;;;2264193;61;2002;-85
2023/05/25 03:30:43;1249363.00;4.16;2179.73;96399.00;0.32;167.36;;;;;12.80;1.00;;;;;;2264243;61;1040;-86
2023/05/25 03:33:12;953412.00;3.18;1650.13;47582.00;0.16;83.00;;;;;13.20;1.00;;;;;;2264236;61;1112;-85
2023/05/25 03:35:39;811647.00;2.71;1401.44;28403.00;0.09;49.82;;;;;13.20;1.00;;;;;;2264218;61;1337;-85
2023/05/25 03:38:06;1012582.00;3.38;1754.77;97517.00;0.33;169.29;;;;;13.40;1.00;;;;;;2264242;61;1135;-86
2023/05/25 03:40:33;876074.00;2.92;1514.14;27297.00;0.09;47.90;;;;;13.70;1.00;;;;;;2264139;61;1101;-86
2023/05/25 03:43:00;1367145.00;4.56;2395.53;119779.00;0.40;207.70;;;;;13.90;1.00;;;;;;2264235;61;1043;-85
2023/05/25 03:45:26;813695.00;2.71;1405.02;78573.00;0.26;136.57;;;;;13.50;1.00;;;;;;2264212;61;1336;-85
2023/05/25 03:47:53;1117686.00;3.73;1942.08;57579.00;0.19;100.29;;;;;13.20;1.00;;;;;;2264208;61;1911;-85
2023/05/25 03:50:22;1273906.00;4.25;2224.43;30067.00;0.10;52.70;;;;;12.80;1.00;;;;;;2264148;61;1128;-85
2023/05/25 03:52:48;1324310.00;4.41;2316.66;72628.00;0.24;126.30;;;;;12.50;1.00;;;;;;2264098;61;949;-85
2023/05/25 03:55:15;1111746.00;3.71;1931.44;164972.00;0.55;285.61;;;;;12.30;1.00;;;;;;2263942;61;1434;-85
2023/05/25 03:57:42;1066402.00;3.55;1850.44;118827.00;0.40;206.06;;;;;12.10;1.00;;;;;;2263948;61;1139;-85
2023/05/25 04:00:10;1296454.00;4.32;2265.62;114573.00;0.38;198.72;;;;;11.90;1.00;;;;;;2263900;61;1111;-85
2023/05/25 04:02:37;1117662.00;3.73;1942.04;126035.00;0.42;218.49;;;;;12.00;1.00;;;;;;2263907;61;1139;-85
2023/05/25 04:05:05;1380064.00;4.60;2419.40;135536.00;0.45;234.87;;;;;12.40;1.00;;;;;;2263946;61;1340;-85
2023/05/25 04:07:35;1070112.00;3.57;1857.06;95263.00;0.32;165.39;;;;;12.80;1.00;;;;;;2269500;55;3771;-85
2023/05/25 04:10:02;1551148.00;5.17;2739.74;189163.00;0.63;327.27;;;;;13.00;1.00;;;;;;2267765;61;1663;-85
2023/05/25 04:12:29;1165504.00;3.89;2027.97;119353.00;0.40;206.97;;;;;12.70;1.00;;;;;;2267976;61;1106;-86
2023/05/25 04:14:56;1088170.00;3.63;1889.28;152516.00;0.51;264.14;;;;;12.50;1.00;;;;;;2267957;61;1404;-85
2023/05/25 04:17:24;117589664.00;391.97;65862452.00;91808.00;0.31;159.43;;;;;12.60;1.00;;;;;;2267928;61;1131;-85
2023/05/25 04:19:50;381669.00;1.27;658.29;100229.00;0.33;173.97;;;;;12.90;1.00;;;;;;2267892;61;1080;-86
2023/05/25 04:22:18;496864.00;1.66;856.42;106264.00;0.35;184.38;;;;;13.00;1.00;;;;;;2267936;61;1134;-86
2023/05/25 04:24:46;554262.00;1.85;955.31;80363.00;0.27;139.66;;;;;12.90;1.00;;;;;;2267863;61;1315;-85
2023/05/25 04:27:14;794641.00;2.65;1371.78;141497.00;0.47;245.15;;;;;12.80;1.00;;;;;;2267854;61;1137;-85
2023/05/25 04:29:41;492712.00;1.64;849.28;121971.00;0.41;211.48;;;;;12.80;1.00;;;;;;2267781;61;1924;-85
2023/05/25 04:32:09;475010.00;1.58;818.81;102590.00;0.34;178.04;;;;;12.70;1.00;;;;;;2267955;61;1137;-85
2023/05/25 04:34:36;465045.00;1.55;801.66;91259.00;0.30;158.48;;;;;12.60;1.00;;;;;;2267708;61;1277;-86
2023/05/25 04:37:04;818877.00;2.73;1414.07;150144.00;0.50;260.06;;;;;12.30;1.00;;;;;;2267975;61;1104;-87
2023/05/25 04:39:31;566223.00;1.89;975.93;119237.00;0.40;206.77;;;;;12.00;1.00;;;;;;2268046;61;1073;-86
2023/05/25 04:42:00;427953.00;1.43;737.87;101602.00;0.34;176.34;;;;;11.70;1.00;;;;;;2267980;61;1027;-86
2023/05/25 04:44:28;658062.00;2.19;1134.59;134257.00;0.45;232.67;;;;;11.60;1.00;;;;;;2267885;61;1387;-85
2023/05/25 04:46:55;393542.00;1.31;678.70;116042.00;0.39;201.25;;;;;11.60;1.00;;;;;;2267980;61;1065;-85
2023/05/25 04:49:22;585924.00;1.95;1009.92;36125.00;0.12;63.18;;;;;11.60;1.00;;;;;;2267945;61;1996;-84
2023/05/25 04:51:50;117239272.00;390.80;65274920.00;0.00;0.00;0.62;;;;;11.70;1.00;;;;;;2268041;61;1001;-85
2023/05/25 04:54:17;535829.00;1.79;923.54;68628.00;0.23;119.39;;;;;11.90;1.00;;;;;;2268620;61;1355;-84
2023/05/25 04:56:44;451298.00;1.50;778.02;48839.00;0.16;85.18;;;;;12.00;1.00;;;;;;2268551;61;1149;-85
2023/05/25 04:59:12;355727.00;1.19;613.70;7843.00;0.03;14.21;;;;;12.20;1.00;;;;;;2268559;61;1105;-85
2023/05/25 05:01:39;176904.00;0.59;306.16;0.00;0.00;0.62;;;;;12.40;1.00;;;;;;2268579;61;1024;-86
2023/05/25 05:04:06;183962.00;0.61;318.31;0.00;0.00;0.62;;;;;12.50;1.00;;;;;;2268461;61;1320;-85
2023/05/25 05:06:34;96027.00;0.32;166.71;0.00;0.00;0.62;;;;;12.50;1.00;;;;;;2268561;61;1174;-86
2023/05/25 05:09:01;215856.00;0.72;373.21;0.00;0.00;0.62;;;;;12.80;1.00;;;;;;2268375;61;1918;-86
2023/05/25 05:11:28;313801.00;1.05;541.64;0.00;0.00;0.62;;;;;13.00;1.00;;;;;;2268471;61;1061;-88
2023/05/25 05:13:55;204115.00;0.68;353.01;0.00;0.00;0.62;;;;;13.60;1.00;;;;;;2268423;61;1078;-88
2023/05/25 05:16:23;178602.00;0.60;309.08;4366.00;0.01;8.19;;;;;13.80;1.00;;;;;;2268414;61;1281;-86
2023/05/25 05:18:50;223829.00;0.75;386.93;0.00;0.00;0.62;;;;;13.80;1.00;;;;;;2268256;61;1095;-90
2023/05/25 05:21:17;187385.00;0.62;324.21;0.00;0.00;0.62;;;;;13.90;1.00;;;;;;2268577;61;1122;-85
2023/05/25 05:23:45;240136.00;0.80;414.99;0.00;0.00;0.62;;;;;13.40;1.00;;;;;;2268389;61;1190;-85
2023/05/25 05:26:13;366451.00;1.22;632.14;74333.00;0.25;129.25;;;;;13.60;1.00;;;;;;2268527;61;1377;-85
2023/05/25 05:28:41;338095.00;1.13;583.40;7399.00;0.02;13.44;;;;;13.90;1.00;;;;;;2268407;61;1915;-84
2023/05/25 05:31:08;535630.00;1.79;923.19;29682.00;0.10;52.03;;;;;14.10;1.00;;;;;;2268511;61;1012;-84
2023/05/25 05:33:36;269974.00;0.90;466.30;0.00;0.00;0.62;;;;;14.30;1.00;;;;;;2268502;61;1122;-87
2023/05/25 05:36:03;456775.00;1.52;787.44;29162.00;0.10;51.13;;;;;14.20;1.00;;;;;;2268357;61;2088;-86
2023/05/25 05:38:30;658677.00;2.20;1135.65;96016.00;0.32;166.69;;;;;14.20;1.00;;;;;;2268421;61;1660;-86
2023/05/25 05:40:57;1208356.00;4.03;2105.34;161765.00;0.54;280.08;;;;;13.90;1.00;;;;;;2268432;61;1066;-87
2023/05/25 05:43:24;1067757.00;3.56;1852.86;115590.00;0.39;200.47;;;;;13.70;1.00;;;;;;2268350;61;1078;-87
2023/05/25 05:45:51;1091640.00;3.64;1895.48;75762.00;0.25;131.72;;;;;13.90;1.00;;;;;;2268458;61;1377;-87
2023/05/25 05:48:18;938091.00;3.13;1623.12;77498.00;0.26;134.72;;;;;13.70;1.00;;;;;;2268514;61;2000;-86
2023/05/25 05:50:46;1400867.00;4.67;2457.93;11467.00;0.04;20.49;;;;;13.50;1.00;;;;;;2268444;61;1143;-86
2023/05/25 05:53:13;816402.00;2.72;1409.74;61406.00;0.20;106.91;;;;;13.50;1.00;;;;;;2268398;61;1081;-87
2023/05/25 05:55:40;1548580.00;5.16;2734.87;113896.00;0.38;197.55;;;;;13.80;1.00;;;;;;2268364;61;1390;-86
2023/05/25 05:58:07;1113009.00;3.71;1933.70;31882.00;0.11;55.84;;;;;13.80;1.00;;;;;;2268000;61;1777;-87
2023/05/25 06:00:34;1177953.00;3.93;2050.41;57332.00;0.19;99.86;;;;;13.40;1.00;;;;;;2268516;61;1082;-86
2023/05/25 06:03:01;1314135.00;4.38;2298.00;195797.00;0.65;338.69;;;;;13.50;1.00;;;;;;2268301;61;1153;-86
2023/05/25 06:05:28;1479309.00;4.93;2604.25;168822.00;0.56;292.24;;;;;13.60;1.00;;;;;;2268187;61;1363;-86
2023/05/25 06:07:56;1622916.00;5.41;2876.61;248526.00;0.83;429.42;;;;;13.90;1.00;;;;;;2268271;61;1063;-85
2023/05/25 06:10:23;913068.00;3.04;1579.08;37056.00;0.12;64.79;;;;;14.30;1.00;;;;;;2268321;61;1027;-87
2023/05/25 06:12:50;976369.00;3.25;1690.66;56958.00;0.19;99.22;;;;;14.90;1.00;;;;;;2268325;61;1036;-87
2023/05/25 06:15:17;491522.00;1.64;847.23;99500.00;0.33;172.71;;;;;15.10;1.00;;;;;;2268408;61;1403;-86
2023/05/25 06:17:45;529898.00;1.77;913.32;132374.00;0.44;229.42;;;;;15.60;1.00;;;;;;2268267;61;1142;-86
2023/05/25 06:20:13;572984.00;1.91;987.59;105824.00;0.35;183.62;;;;;16.50;1.00;;;;;;2268282;61;1033;-86
2023/05/25 06:22:40;358681.00;1.20;618.78;104567.00;0.35;181.45;;;;;18.10;1.00;;;;;;2268376;61;1153;-86
2023/05/25 06:25:09;937153.00;3.12;1621.47;127706.00;0.43;221.37;;;;;18.60;1.00;;;;;;2268373;61;1309;-87
2023/05/25 06:27:36;472769.00;1.58;814.95;73217.00;0.24;127.32;;;;;18.40;1.00;;;;;;2268397;61;1075;-87
2023/05/25 06:30:03;635952.00;2.12;1096.34;89034.00;0.30;154.64;;;;;18.00;1.00;;;;;;2268135;61;2001;-87
2023/05/25 06:32:30;478603.00;1.60;824.99;110066.00;0.37;190.94;;;;;17.80;1.00;;;;;;2268112;61;1032;-86
2023/05/25 06:34:57;514164.00;1.71;886.21;88573.00;0.30;153.84;;;;;17.80;1.00;;;;;;2268291;61;1339;-87
2023/05/25 06:37:24;419700.00;1.40;723.67;73637.00;0.25;128.04;;;;;17.60;1.00;;;;;;2268212;61;1031;-87
2023/05/25 06:39:51;549881.00;1.83;947.75;89331.00;0.30;155.15;;;;;17.50;1.00;;;;;;2268273;61;1127;-87
2023/05/25 06:42:19;384631.00;1.28;663.39;103061.00;0.34;178.86;;;;;17.50;1.00;;;;;;2268304;61;1024;-86
2023/05/25 06:44:46;118801248.00;396.00;67921208.00;97159.00;0.32;168.67;;;;;16.80;1.00;;;;;;2268297;61;1300;-86
2023/05/25 06:47:13;500620.00;1.67;862.89;67529.00;0.23;117.49;;;;;16.00;1.00;;;;;;2268282;61;1095;-86
2023/05/25 06:49:40;449075.00;1.50;774.19;95653.00;0.32;166.07;;;;;15.90;1.00;;;;;;2268138;61;1907;-88
2023/05/25 06:52:07;495174.00;1.65;853.52;136297.00;0.45;236.19;;;;;15.70;1.00;;;;;;2268236;61;1027;-86
2023/05/25 06:57:01;883310.00;2.94;1526.83;146228.00;0.49;253.31;;;;;15.70;1.00;;;;;;2270115;61;1388;-85
2023/05/25 06:59:30;352267.00;1.17;607.76;91985.00;0.31;159.74;;;;;15.50;1.00;;;;;;2272974;55;3748;-86
2023/05/25 07:01:57;708414.00;2.36;1221.83;198020.00;0.66;342.52;;;;;15.40;1.00;;;;;;2268326;61;1049;-87
2023/05/25 07:04:25;435294.00;1.45;750.49;88430.00;0.29;153.60;;;;;15.70;1.00;;;;;;2268381;61;1274;-87
2023/05/25 07:06:52;331728.00;1.11;572.46;81185.00;0.27;141.08;;;;;15.40;1.00;;;;;;2268245;61;1102;-87
2023/05/25 07:09:19;646734.00;2.16;1114.99;167120.00;0.56;289.31;;;;;15.50;1.00;;;;;;2267680;61;1935;-86
2023/05/25 07:14:16;1078148.00;3.59;1871.39;104048.00;0.35;180.56;;;;;15.60;1.00;;;;;;2272620;55;3622;-89
2023/05/25 07:19:12;863533.00;2.88;1492.16;141505.00;0.47;245.17;;;;;15.70;1.00;;;;;;2266197;61;1449;-88
2023/05/25 07:21:40;670737.00;2.24;1156.53;127319.00;0.42;220.71;;;;;16.00;1.00;;;;;;2270334;40;3643;-90
2023/05/25 07:24:07;571191.00;1.90;984.50;140109.00;0.47;242.76;;;;;16.20;1.00;;;;;;2268211;61;1440;-88
2023/05/25 07:26:35;264160.00;0.88;456.30;89288.00;0.30;155.08;;;;;16.20;1.00;;;;;;2268342;61;1044;-89
2023/05/25 07:29:02;487462.00;1.62;840.24;92290.00;0.31;160.26;;;;;16.00;1.00;;;;;;2268288;61;2012;-89
2023/05/25 07:31:29;735270.00;2.45;1268.46;92460.00;0.31;160.56;;;;;16.20;1.00;;;;;;2275484;56;3752;-88
2023/05/25 07:33:56;295151.00;0.98;509.58;85183.00;0.28;147.99;;;;;16.60;1.00;;;;;;2268219;61;975;-88
2023/05/25 07:36:24;357303.00;1.19;616.41;89133.00;0.30;154.81;;;;;17.10;1.00;;;;;;2268180;61;2270;-88
2023/05/25 07:38:51;457843.00;1.53;789.27;88289.00;0.29;153.35;;;;;17.60;1.00;;;;;;2268361;61;1773;-87
2023/05/25 07:41:18;382849.00;1.28;660.32;110111.00;0.37;191.02;;;;;18.20;1.00;;;;;;2268210;61;1752;-88
2023/05/25 07:46:16;646721.00;2.16;1114.96;90212.00;0.30;156.67;;;;;19.20;1.00;;;;;;2270901;61;1316;-89
2023/05/25 07:48:43;483814.00;1.61;833.96;121244.00;0.40;210.23;;;;;19.60;1.00;;;;;;2268933;61;1997;-88
2023/05/25 07:51:10;648631.00;2.16;1118.27;86366.00;0.29;150.03;;;;;19.90;1.00;;;;;;2268223;61;955;-88
2023/05/25 07:53:38;484442.00;1.61;835.04;85699.00;0.29;148.88;;;;;20.60;1.00;;;;;;2268313;61;1587;-87
2023/05/25 07:56:06;447688.00;1.49;771.81;75716.00;0.25;131.64;;;;;21.10;1.00;;;;;;2268262;61;1487;-87
2023/05/25 07:58:33;507371.00;1.69;874.52;95618.00;0.32;166.01;;;;;21.10;1.00;;;;;;2268271;61;1647;-88
2023/05/25 08:03:28;575195.00;1.92;991.41;70776.00;0.24;123.10;;;;;19.80;1.00;;;;;;2265937;61;1389;-89
2023/05/25 08:05:55;430175.00;1.43;741.69;84871.00;0.28;147.45;;;;;19.70;1.00;;;;;;2274415;55;4241;-88
2023/05/25 08:10:52;799609.00;2.67;1380.44;82582.00;0.28;143.50;;;;;20.10;1.00;;;;;;1574840;56;3543;-90
2023/05/25 08:13:19;601307.00;2.00;1036.48;88983.00;0.30;154.55;;;;;20.60;1.00;;;;;;2268113;61;1750;-88
2023/05/25 08:18:14;718225.00;2.39;1238.86;89100.00;0.30;154.75;;;;;20.50;1.00;;;;;;2266030;61;1430;-88
2023/05/25 08:20:41;614947.00;2.05;1060.04;157026.00;0.52;271.92;;;;;19.90;1.00;;;;;;2264218;61;1120;-87
2023/05/25 08:23:08;408839.00;1.36;705.00;90725.00;0.30;157.56;;;;;19.40;1.00;;;;;;2264198;61;1117;-88
2023/05/25 08:25:35;868964.00;2.90;1501.67;229180.00;0.76;396.14;;;;;18.80;1.00;;;;;;2263994;61;1391;-86
2023/05/25 08:28:03;434593.00;1.45;749.28;104363.00;0.35;181.10;;;;;18.50;1.00;;;;;;2264578;61;939;-87
2023/05/25 08:30:31;536160.00;1.79;924.11;93225.00;0.31;161.88;;;;;18.60;1.00;;;;;;2264933;61;1915;-86
2023/05/25 08:32:58;512626.00;1.71;883.56;133473.00;0.44;231.32;;;;;18.60;1.00;;;;;;2277072;40;3585;-88
2023/05/25 08:35:24;901049.00;3.00;1557.96;92194.00;0.31;160.10;;;;;18.70;1.00;;;;;;2271713;55;3735;-89
2023/05/25 08:37:52;371943.00;1.24;641.58;81409.00;0.27;141.47;;;;;19.10;1.00;;;;;;2268843;61;1096;-87
2023/05/25 08:40:23;625334.00;2.08;1077.98;101797.00;0.34;176.67;;;;;19.00;1.00;;;;;;2268706;61;1761;-87
2023/05/25 08:42:50;695579.00;2.32;1199.57;105813.00;0.35;183.60;;;;;18.80;1.00;;;;;;2268875;61;1138;-88
2023/05/25 08:45:18;487002.00;1.62;839.45;99077.00;0.33;171.98;;;;;18.90;1.00;;;;;;2268877;61;1399;-89
2023/05/25 08:47:48;485331.00;1.62;836.57;89511.00;0.30;155.46;;;;;18.40;1.00;;;;;;2271523;39;3593;-87
2023/05/25 08:50:17;385162.00;1.28;664.30;103958.00;0.35;180.40;;;;;18.30;1.00;;;;;;2268745;61;1919;-88
2023/05/25 08:57:54;946213.00;3.15;1637.43;212549.00;0.71;367.52;;;;;18.40;1.00;;;;;;2266679;61;1521;-88
2023/05/25 09:00:28;297334.00;0.99;513.34;86069.00;0.29;149.52;;;;;18.00;1.00;;;;;;2264723;61;1131;-88
2023/05/25 09:03:05;529370.00;1.76;912.41;97142.00;0.32;168.64;;;;;18.80;1.00;;;;;;2264737;61;2321;-87
2023/05/25 09:05:34;864797.00;2.88;1494.37;132437.00;0.44;229.53;;;;;19.80;1.00;;;;;;2264721;61;1652;-86
2023/05/25 09:08:02;708486.00;2.36;1221.96;116881.00;0.39;202.70;;;;;20.40;1.00;;;;;;2264683;61;1193;-87
2023/05/25 09:12:59;950911.00;3.17;1645.72;93143.00;0.31;161.73;;;;;21.60;1.00;;;;;;2301318;40;3510;-88
2023/05/25 09:17:56;564800.00;1.88;973.48;89604.00;0.30;155.62;;;;;21.90;1.00;;;;;;2274156;61;1404;-88
2023/05/25 09:22:50;1624894.00;5.42;2880.41;170180.00;0.57;294.58;;;;;21.60;1.00;;;;;;2266421;61;1397;-87
2023/05/25 09:25:19;727860.00;2.43;1255.59;87014.00;0.29;151.15;;;;;20.80;1.00;;;;;;2301674;40;3923;-86
2023/05/25 09:27:46;609466.00;2.03;1050.57;84946.00;0.28;147.58;;;;;20.60;1.00;;;;;;2268730;61;1090;-89
2023/05/25 09:30:13;903493.00;3.01;1562.26;185737.00;0.62;321.37;;;;;20.60;1.00;;;;;;2268620;61;1907;-88
2023/05/25 09:32:40;722019.00;2.41;1245.44;88052.00;0.29;152.94;;;;;21.40;1.00;;;;;;2268750;61;918;-87
2023/05/25 09:35:10;597074.00;1.99;1029.17;119051.00;0.40;206.45;;;;;21.70;1.00;;;;;;2268555;61;1384;-87
2023/05/25 09:37:38;659113.00;2.20;1136.41;78102.00;0.26;135.76;;;;;21.90;1.00;;;;;;2268381;61;1112;-87
2023/05/25 09:40:07;667516.00;2.23;1150.95;82884.00;0.28;144.02;;;;;21.20;1.00;;;;;;2275998;56;3725;-88
2023/05/25 09:42:35;388759.00;1.30;670.48;90281.00;0.30;156.79;;;;;20.50;1.00;;;;;;2268538;61;1158;-87
2023/05/25 09:45:02;737748.00;2.46;1272.76;88211.00;0.29;153.22;;;;;20.30;1.00;;;;;;2268552;61;1353;-87
2023/05/25 09:47:28;923094.00;3.08;1596.72;95473.00;0.32;165.76;;;;;21.00;1.00;;;;;;2268596;61;1047;-87
2023/05/25 09:49:57;764851.00;2.55;1319.89;88365.00;0.29;153.48;;;;;21.10;1.00;;;;;;2268654;61;1920;-87
2023/05/25 09:52:26;716435.00;2.39;1235.75;117292.00;0.39;203.41;;;;;21.50;1.00;;;;;;2268587;61;1626;-88